createdAt,value
2023-01-21T00:01:19.893Z,100845.81
2023-01-21T00:03:47.830Z,100846.63
2023-01-21T00:06:16.401Z,100851.75
2023-01-21T00:08:44.464Z,100853.47
2023-01-21T00:11:15.305Z,100853.50
2023-01-21T00:13:43.905Z,100864.56
2023-01-21T00:16:13.932Z,100862.91
2023-01-21T00:18:42.536Z,100862.81
2023-01-21T00:21:11.434Z,100868.75
2023-01-21T00:23:39.390Z,100873.00
2023-01-21T00:26:11.282Z,100873.94
2023-01-21T00:28:41.534Z,100873.88
2023-01-21T00:31:11.990Z,100881.56
2023-01-21T00:33:46.819Z,100877.41
2023-01-21T00:36:18.325Z,100887.56
2023-01-21T00:38:49.589Z,100890.06
2023-01-21T00:41:17.981Z,100891.75
2023-01-21T00:43:46.091Z,100900.41
2023-01-21T00:46:14.712Z,100902.09
2023-01-21T00:48:43.824Z,100893.63
2023-01-21T00:51:12.616Z,100901.22
2023-01-21T00:53:42.776Z,100907.22
2023-01-21T00:56:13.191Z,100915.69
2023-01-21T00:58:43.266Z,100922.47
2023-01-21T01:01:13.858Z,100927.59
2023-01-21T01:03:42.710Z,100926.75
2023-01-21T01:06:14.526Z,100936.97
2023-01-21T01:08:42.613Z,100938.66
2023-01-21T01:11:12.164Z,100942.13
2023-01-21T01:13:40.103Z,100948.91
2023-01-21T01:16:09.239Z,100949.72
2023-01-21T01:18:38.254Z,100960.81
2023-01-21T01:21:07.343Z,100961.75
2023-01-21T01:23:37.259Z,100968.56
2023-01-21T01:26:08.603Z,100968.53
2023-01-21T01:28:37.031Z,100977.09
2023-01-21T01:31:07.418Z,100973.63
2023-01-21T01:33:35.684Z,100982.19
2023-01-21T01:36:04.656Z,100992.47
2023-01-21T01:38:32.410Z,100993.28
2023-01-21T01:41:02.092Z,101006.81
2023-01-21T01:43:55.743Z,101008.56
2023-01-21T01:46:24.259Z,101010.34
2023-01-21T01:48:56.287Z,101010.28
2023-01-21T01:51:31.617Z,101017.13
2023-01-21T01:54:00.563Z,101017.91
2023-01-21T01:56:31.604Z,101022.19
2023-01-21T01:58:59.611Z,101025.56
2023-01-21T02:01:30.366Z,101023.06
2023-01-21T02:04:00.888Z,101022.22
2023-01-21T02:06:29.862Z,101028.16
2023-01-21T02:08:58.151Z,101035.81
2023-01-21T02:11:26.939Z,101030.72
2023-01-21T02:13:58.739Z,101030.72
2023-01-21T02:16:52.085Z,101035.06
2023-01-21T02:19:50.950Z,101040.94
2023-01-21T02:22:27.419Z,101042.69
2023-01-21T02:25:26.696Z,101042.69
2023-01-21T02:28:13.379Z,101036.78
2023-01-21T02:31:19.685Z,101033.28
2023-01-21T02:34:07.437Z,101035.84
2023-01-21T02:36:54.385Z,101030.84
2023-01-21T02:39:32.377Z,101042.66
2023-01-21T02:42:12.142Z,101050.38
2023-01-21T02:44:42.395Z,101044.38
2023-01-21T02:47:19.815Z,101049.47
2023-01-21T02:49:54.132Z,101043.56
2023-01-21T02:52:23.324Z,101052.91
2023-01-21T02:54:53.964Z,101052.94
2023-01-21T02:57:40.596Z,101052.91
2023-01-21T03:00:16.854Z,101055.44
2023-01-21T03:03:11.655Z,101060.59
2023-01-21T03:06:04.217Z,101067.41
2023-01-21T03:08:41.670Z,101068.34
2023-01-21T03:11:15.518Z,101073.41
2023-01-21T03:14:07.310Z,101078.50
2023-01-21T03:16:59.558Z,101075.41
2023-01-21T03:19:33.875Z,101083.75
2023-01-21T03:22:09.563Z,101081.09
2023-01-21T03:24:39.298Z,101085.31
2023-01-21T03:27:10.378Z,101082.81
2023-01-21T03:29:39.866Z,101090.47
2023-01-21T03:32:10.460Z,101089.56
2023-01-21T03:34:43.023Z,101098.03
2023-01-21T03:37:17.183Z,101098.00
2023-01-21T03:39:49.431Z,101103.22
2023-01-21T03:42:17.664Z,101098.03
2023-01-21T03:44:47.125Z,101101.47
2023-01-21T03:47:24.332Z,101103.88
2023-01-21T03:49:58.136Z,101107.50
2023-01-21T03:52:28.585Z,101110.03
2023-01-21T03:54:56.616Z,101107.50
2023-01-21T03:57:24.486Z,101119.28
2023-01-21T03:59:52.989Z,101121.75
2023-01-21T04:02:21.051Z,101121.06
2023-01-21T04:04:49.382Z,101123.56
2023-01-21T04:07:17.711Z,101126.94
2023-01-21T04:09:47.344Z,101132.00
2023-01-21T04:12:15.227Z,101132.81
2023-01-21T04:14:43.789Z,101133.72
2023-01-21T04:17:12.250Z,101136.25
2023-01-21T04:19:39.988Z,101138.69
2023-01-21T04:22:08.511Z,101140.41
2023-01-21T04:24:36.890Z,101146.31
2023-01-21T04:27:06.266Z,101140.25
2023-01-21T04:29:34.773Z,101150.28
2023-01-21T04:32:02.476Z,101154.59
2023-01-21T04:34:30.918Z,101163.22
2023-01-21T04:36:58.671Z,101155.50
2023-01-21T04:39:26.467Z,101156.91
2023-01-21T04:41:54.626Z,101160.19
2023-01-21T04:44:23.911Z,101158.50
2023-01-21T04:46:52.077Z,101167.94
2023-01-21T04:49:19.858Z,101171.97
2023-01-21T04:51:47.606Z,101172.25
2023-01-21T04:54:15.330Z,101167.19
2023-01-21T04:56:43.074Z,101182.16
2023-01-21T04:59:12.137Z,101183.22
2023-01-21T05:01:41.508Z,101185.75
2023-01-21T05:04:10.580Z,101192.50
2023-01-21T05:06:39.624Z,101194.28
2023-01-21T05:09:08.109Z,101204.22
2023-01-21T05:11:37.737Z,101210.75
2023-01-21T05:14:05.575Z,101211.69
2023-01-21T05:16:34.025Z,101209.78
2023-01-21T05:19:03.137Z,101221.56
2023-01-21T05:21:31.289Z,101217.38
2023-01-21T05:23:59.589Z,101230.78
2023-01-21T05:26:28.420Z,101220.91
2023-01-21T05:28:56.150Z,101238.75
2023-01-21T05:31:25.153Z,101232.00
2023-01-21T05:33:53.843Z,101235.94
2023-01-21T05:36:22.917Z,101238.34
2023-01-21T05:38:50.807Z,101241.69
2023-01-21T05:41:18.995Z,101249.97
2023-01-21T05:43:46.868Z,101256.81
2023-01-21T05:46:14.669Z,101265.28
2023-01-21T05:48:42.722Z,101276.16
2023-01-21T05:51:11.102Z,101268.34
2023-01-21T05:53:41.566Z,101264.94
2023-01-21T05:56:10.389Z,101273.34
2023-01-21T05:58:39.119Z,101276.47
2023-01-21T06:01:08.655Z,101287.44
2023-01-21T06:03:38.331Z,101283.97
2023-01-21T06:06:07.826Z,101282.31
2023-01-21T06:08:35.632Z,101289.78
2023-01-21T06:11:04.927Z,101294.13
2023-01-21T06:13:33.171Z,101293.47
2023-01-21T06:16:00.956Z,101303.34
2023-01-21T06:18:28.766Z,101292.38
2023-01-21T06:21:00.296Z,101303.50
2023-01-21T06:23:28.541Z,101313.47
2023-01-21T06:26:00.293Z,101319.22
2023-01-21T06:28:30.662Z,101326.25
2023-01-21T06:30:58.738Z,101322.00
2023-01-21T06:33:26.683Z,101330.97
2023-01-21T06:35:54.467Z,101335.72
2023-01-21T06:38:22.637Z,101342.22
2023-01-21T06:40:50.542Z,101341.25
2023-01-21T06:43:19.034Z,101342.88
2023-01-21T06:45:48.278Z,101347.22
2023-01-21T06:48:16.103Z,101358.81
2023-01-21T06:50:47.173Z,101365.34
2023-01-21T06:53:15.195Z,101361.09
2023-01-21T06:55:44.099Z,101368.50
2023-01-21T06:58:14.999Z,101376.75
2023-01-21T07:00:44.579Z,101378.81
2023-01-21T07:03:14.419Z,101378.56
2023-01-21T07:05:42.894Z,101382.88
2023-01-21T07:08:12.363Z,101384.53
2023-01-21T07:10:40.435Z,101378.31
2023-01-21T07:13:09.712Z,101383.41
2023-01-21T07:15:37.531Z,101384.16
2023-01-21T07:18:05.588Z,101392.72
2023-01-21T07:20:35.051Z,101395.41
2023-01-21T07:23:03.088Z,101391.94
2023-01-21T07:25:32.437Z,101399.50
2023-01-21T07:28:00.248Z,101396.22
2023-01-21T07:30:28.114Z,101407.88
2023-01-21T07:32:55.895Z,101402.91
2023-01-21T07:35:23.653Z,101416.72
2023-01-21T07:37:52.840Z,101421.47
2023-01-21T07:40:20.684Z,101417.13
2023-01-21T07:42:52.477Z,101425.63
2023-01-21T07:45:20.834Z,101423.09
2023-01-21T07:47:48.777Z,101426.19
2023-01-21T07:50:17.603Z,101430.41
2023-01-21T07:52:47.194Z,101431.69
2023-01-21T07:55:16.718Z,101433.09
2023-01-21T07:57:45.552Z,101437.84
2023-01-21T08:00:15.344Z,101438.25
2023-01-21T08:02:43.171Z,101437.31
2023-01-21T08:05:12.717Z,101440.81
2023-01-21T08:07:40.562Z,101444.16
2023-01-21T08:10:09.825Z,101442.94
2023-01-21T08:12:41.651Z,101449.41
2023-01-21T08:15:11.514Z,101455.03
2023-01-21T08:17:39.693Z,101456.69
2023-01-21T08:20:10.193Z,101459.25
2023-01-21T08:22:38.923Z,101461.16
2023-01-21T08:25:08.879Z,101461.84
2023-01-21T08:27:36.905Z,101461.78
2023-01-21T08:30:07.266Z,101460.25
2023-01-21T08:32:35.510Z,101462.78
2023-01-21T08:35:03.313Z,101461.06
2023-01-21T08:37:31.103Z,101461.94
2023-01-21T08:39:59.233Z,101469.03
2023-01-21T08:42:27.011Z,101472.78
2023-01-21T08:44:55.270Z,101465.13
2023-01-21T08:47:24.573Z,101471.50
2023-01-21T08:49:52.287Z,101477.06
2023-01-21T08:52:21.507Z,101472.25
2023-01-21T08:54:50.788Z,101474.19
2023-01-21T08:57:18.790Z,101469.22
2023-01-21T08:59:46.957Z,101472.78
2023-01-21T09:02:15.702Z,101469.69
2023-01-21T09:04:45.058Z,101481.16
2023-01-21T09:07:13.166Z,101474.31
2023-01-21T09:09:41.082Z,101484.72
2023-01-21T09:12:10.369Z,101485.63
2023-01-21T09:14:38.303Z,101484.78
2023-01-21T09:17:06.045Z,101481.03
2023-01-21T09:19:34.072Z,101486.69
2023-01-21T09:22:03.099Z,101490.16
2023-01-21T09:24:30.955Z,101493.78
2023-01-21T09:26:58.795Z,101491.06
2023-01-21T09:29:26.714Z,101498.88
2023-01-21T09:31:54.734Z,101493.03
2023-01-21T09:34:22.617Z,101496.34
2023-01-21T09:36:51.703Z,101498.81
2023-01-21T09:39:21.024Z,101505.50
2023-01-21T09:41:52.819Z,101510.66
2023-01-21T09:44:26.339Z,101519.47
2023-01-21T09:46:59.521Z,101513.75
2023-01-21T09:49:31.092Z,101516.63
2023-01-21T09:52:04.356Z,101520.97
2023-01-21T09:54:36.120Z,101516.31
2023-01-21T09:57:29.414Z,101520.59
2023-01-21T10:00:10.412Z,101523.13
2023-01-21T10:02:49.929Z,101523.97
2023-01-21T10:05:40.147Z,101531.28
2023-01-21T10:08:18.752Z,101530.41
2023-01-21T10:10:53.856Z,101528.63
2023-01-21T10:13:33.690Z,101525.72
2023-01-21T10:16:10.404Z,101528.00
2023-01-21T10:18:41.162Z,101526.19
2023-01-21T10:21:17.119Z,101529.09
2023-01-21T10:23:49.380Z,101531.00
2023-01-21T10:26:18.604Z,101527.50
2023-01-21T10:28:52.473Z,101524.91
2023-01-21T10:31:24.486Z,101529.97
2023-01-21T10:33:53.403Z,101529.72
2023-01-21T10:36:45.165Z,101527.28
2023-01-21T10:39:23.907Z,101526.47
2023-01-21T10:42:02.850Z,101525.78
2023-01-21T10:44:41.154Z,101526.81
2023-01-21T10:47:18.955Z,101527.50
2023-01-21T10:49:55.685Z,101527.19
2023-01-21T10:52:30.002Z,101526.56
2023-01-21T10:55:03.633Z,101528.09
2023-01-21T10:57:51.364Z,101532.41
2023-01-21T11:00:23.423Z,101529.09
2023-01-21T11:02:57.075Z,101529.09
2023-01-21T11:05:26.675Z,101517.47
2023-01-21T11:07:57.016Z,101517.44
2023-01-21T11:10:28.007Z,101508.75
2023-01-21T11:13:00.487Z,101513.41
2023-01-21T11:15:33.903Z,101503.59
2023-01-21T11:18:02.080Z,101511.22
2023-01-21T11:20:36.925Z,101513.16
2023-01-21T11:23:06.216Z,101518.00
2023-01-21T11:25:41.067Z,101508.91
2023-01-21T11:28:23.803Z,101512.25
2023-01-21T11:31:03.399Z,101512.63
2023-01-21T11:33:31.272Z,101511.81
2023-01-21T11:36:11.888Z,101502.31
2023-01-21T11:38:39.779Z,101507.84
2023-01-21T11:41:17.105Z,101506.09
2023-01-21T11:43:48.300Z,101500.66
2023-01-21T11:46:38.225Z,101498.97
2023-01-21T11:49:27.220Z,101498.97
2023-01-21T11:52:15.801Z,101503.91
2023-01-21T11:54:44.172Z,101497.97
2023-01-21T11:57:33.824Z,101497.75
2023-01-21T12:00:19.996Z,101507.19
2023-01-21T12:02:51.258Z,101502.25
2023-01-21T12:05:31.829Z,101500.56
2023-01-21T12:08:00.769Z,101501.34
2023-01-21T12:10:32.163Z,101496.13
2023-01-21T12:13:20.096Z,101499.00
2023-01-21T12:16:21.834Z,101493.88
2023-01-21T12:19:19.085Z,101503.88
2023-01-21T12:22:14.921Z,101494.06
2023-01-21T12:25:03.103Z,101492.06
2023-01-21T12:27:38.992Z,101490.38
2023-01-21T12:30:19.899Z,101487.44
2023-01-21T12:32:54.429Z,101494.28
2023-01-21T12:35:29.607Z,101484.19
2023-01-21T12:38:04.176Z,101485.47
2023-01-21T12:40:35.060Z,101485.09
2023-01-21T12:43:10.394Z,101488.72
2023-01-21T12:45:45.182Z,101485.94
2023-01-21T12:48:19.301Z,101493.22
2023-01-21T12:50:53.191Z,101490.66
2023-01-21T12:53:28.475Z,101504.13
2023-01-21T12:56:12.806Z,101505.84
2023-01-21T12:58:44.722Z,101499.97
2023-01-21T13:01:15.377Z,101500.56
2023-01-21T13:03:57.248Z,101512.28
2023-01-21T13:06:51.954Z,101511.28
2023-01-21T13:09:26.143Z,101509.47
2023-01-21T13:11:59.736Z,101503.25
2023-01-21T13:14:32.686Z,101515.56
2023-01-21T13:17:04.585Z,101512.41
2023-01-21T13:19:33.962Z,101513.41
2023-01-21T13:22:07.630Z,101518.31
2023-01-21T13:24:48.153Z,101507.84
2023-01-21T13:27:22.343Z,101517.44
2023-01-21T13:29:58.329Z,101518.34
2023-01-21T13:32:38.061Z,101514.41
2023-01-21T13:35:23.561Z,101513.91
2023-01-21T13:37:59.767Z,101523.91
2023-01-21T13:40:39.719Z,101530.19
2023-01-21T13:43:18.554Z,101525.50
2023-01-21T13:46:01.296Z,101528.44
2023-01-21T13:49:00.461Z,101523.41
2023-01-21T13:51:42.707Z,101528.56
2023-01-21T13:54:28.404Z,101523.78
2023-01-21T13:57:09.670Z,101521.50
2023-01-21T13:59:43.714Z,101524.06
2023-01-21T14:02:17.341Z,101505.84
2023-01-21T14:04:51.151Z,101515.97
2023-01-21T14:07:28.204Z,101518.25
2023-01-21T14:10:05.474Z,101522.38
2023-01-21T14:12:56.098Z,101514.75
2023-01-21T14:15:48.823Z,101517.09
2023-01-21T14:18:35.058Z,101508.47
2023-01-21T14:21:30.361Z,101516.56
2023-01-21T14:24:18.794Z,101518.25
2023-01-21T14:27:00.574Z,101511.94
2023-01-21T14:29:44.980Z,101520.47
2023-01-21T14:32:17.622Z,101519.13
2023-01-21T14:34:54.978Z,101518.94
2023-01-21T14:37:30.549Z,101523.94
2023-01-21T14:40:10.481Z,101520.88
2023-01-21T14:42:43.611Z,101533.78
2023-01-21T14:45:13.827Z,101528.88
2023-01-21T14:47:44.573Z,101528.63
2023-01-21T14:50:32.909Z,101527.06
2023-01-21T14:53:00.825Z,101528.97
2023-01-21T14:55:32.315Z,101529.66
2023-01-21T14:58:01.815Z,101522.63
2023-01-21T15:00:33.156Z,101532.72
2023-01-21T15:03:16.292Z,101525.97
2023-01-21T15:05:49.762Z,101525.88
2023-01-21T15:08:24.669Z,101533.50
2023-01-21T15:10:59.827Z,101533.50
2023-01-21T15:13:35.663Z,101535.28
2023-01-21T15:16:16.224Z,101537.84
2023-01-21T15:18:48.409Z,101535.88
2023-01-21T15:21:37.336Z,101541.63
2023-01-21T15:24:30.547Z,101540.81
2023-01-21T15:27:15.753Z,101533.09
2023-01-21T15:29:45.008Z,101539.84
2023-01-21T15:32:19.920Z,101536.41
2023-01-21T15:34:51.220Z,101539.84
2023-01-21T15:37:23.047Z,101541.94
2023-01-21T15:39:52.679Z,101547.59
2023-01-21T15:42:29.107Z,101553.47
2023-01-21T15:45:17.282Z,101550.88
2023-01-21T15:48:02.068Z,101552.72
2023-01-21T15:50:37.062Z,101544.19
2023-01-21T15:53:25.967Z,101544.94
2023-01-21T15:56:11.150Z,101539.00
2023-01-21T15:58:54.631Z,101537.47
2023-01-21T16:01:32.729Z,101537.28
2023-01-21T16:04:15.583Z,101545.91
2023-01-21T16:06:55.845Z,101541.38
2023-01-21T16:09:33.648Z,101546.88
2023-01-21T16:12:15.323Z,101545.28
2023-01-21T16:14:56.604Z,101547.13
2023-01-21T16:17:36.567Z,101547.31
2023-01-21T16:20:08.931Z,101552.00
2023-01-21T16:22:40.910Z,101543.31
2023-01-21T16:25:13.899Z,101547.13
2023-01-21T16:27:46.583Z,101552.84
2023-01-21T16:30:20.471Z,101554.41
2023-01-21T16:32:49.366Z,101541.53
2023-01-21T16:35:17.479Z,101553.09
2023-01-21T16:37:55.093Z,101558.13
2023-01-21T16:40:32.293Z,101555.56
2023-01-21T16:43:15.292Z,101560.31
2023-01-21T16:45:51.378Z,101559.19
2023-01-21T16:48:23.455Z,101563.34
2023-01-21T16:50:52.122Z,101566.50
2023-01-21T16:53:21.473Z,101571.53
2023-01-21T16:55:52.333Z,101568.81
2023-01-21T16:58:23.841Z,101564.59
2023-01-21T17:01:07.664Z,101563.63
2023-01-21T17:03:37.278Z,101557.84
2023-01-21T17:06:12.619Z,101562.41
2023-01-21T17:08:41.514Z,101559.13
2023-01-21T17:11:12.875Z,101565.75
2023-01-21T17:13:43.716Z,101568.31
2023-01-21T17:16:24.596Z,101561.78
2023-01-21T17:18:57.890Z,101571.94
2023-01-21T17:21:35.282Z,101579.34
2023-01-21T17:24:07.056Z,101569.22
2023-01-21T17:26:38.392Z,101573.94
2023-01-21T17:29:11.597Z,101578.28
2023-01-21T17:31:43.259Z,101568.47
2023-01-21T17:34:23.903Z,101567.53
2023-01-21T17:36:53.823Z,101573.06
2023-01-21T17:40:02.135Z,101560.19
2023-01-21T17:42:41.045Z,101571.03
2023-01-21T17:45:25.134Z,101569.34
2023-01-21T17:48:14.586Z,101574.75
2023-01-21T17:50:47.536Z,101581.19
2023-01-21T17:53:22.858Z,101577.72
2023-01-21T17:56:00.491Z,101569.22
2023-01-21T17:58:46.656Z,101576.34
2023-01-21T18:01:16.564Z,101580.38
2023-01-21T18:03:46.129Z,101584.56
2023-01-21T18:06:19.187Z,101579.28
2023-01-21T18:08:46.944Z,101589.38
2023-01-21T18:11:17.565Z,101591.84
2023-01-21T18:13:46.973Z,101601.38
2023-01-21T18:16:15.169Z,101595.56
2023-01-21T18:18:43.109Z,101586.78
2023-01-21T18:21:20.281Z,101592.06
2023-01-21T18:23:48.544Z,101591.09
2023-01-21T18:26:26.176Z,101586.91
2023-01-21T18:28:54.195Z,101593.00
2023-01-21T18:31:22.997Z,101593.00
2023-01-21T18:33:51.065Z,101587.78
2023-01-21T18:36:23.253Z,101583.53
2023-01-21T18:38:51.119Z,101585.06
2023-01-21T18:41:19.689Z,101589.25
2023-01-21T18:43:47.922Z,101585.88
2023-01-21T18:46:16.247Z,101585.66
2023-01-21T18:48:44.049Z,101594.13
2023-01-21T18:51:13.922Z,101595.00
2023-01-21T18:53:43.164Z,101594.59
2023-01-21T19:03:36.115Z,101599.19
2023-01-21T19:06:17.655Z,101603.56
2023-01-21T19:08:50.279Z,101608.53
2023-01-21T19:11:18.371Z,101603.44
2023-01-21T19:13:46.870Z,101599.25
2023-01-21T19:16:18.448Z,101586.66
2023-01-21T19:18:47.155Z,101587.34
2023-01-21T19:21:16.036Z,101587.41
2023-01-21T19:23:43.975Z,101585.59
2023-01-21T19:26:15.751Z,101577.63
2023-01-21T19:28:43.637Z,101590.94
2023-01-21T19:31:12.635Z,101584.09
2023-01-21T19:33:42.916Z,101586.69
2023-01-21T19:36:17.472Z,101588.44
2023-01-21T19:38:52.129Z,101590.28
2023-01-21T19:44:22.505Z,101587.44
2023-01-21T19:46:50.933Z,101591.59
2023-01-21T19:49:19.272Z,101579.69
2023-01-21T19:51:48.077Z,101583.28
2023-01-21T19:54:16.088Z,101585.66
2023-01-21T19:56:44.425Z,101582.19
2023-01-21T19:59:15.441Z,101576.31
2023-01-21T20:01:45.640Z,101579.03
2023-01-21T20:04:13.526Z,101582.28
2023-01-21T20:06:42.011Z,101590.06
2023-01-21T20:09:14.863Z,101584.91
2023-01-21T20:11:43.467Z,101596.03
2023-01-21T20:14:12.609Z,101585.00
2023-01-21T20:16:48.773Z,101585.28
2023-01-21T20:19:19.517Z,101582.66
2023-01-21T20:22:00.394Z,101577.72
2023-01-21T20:24:33.814Z,101580.88
2023-01-21T20:27:08.598Z,101573.16
2023-01-21T20:29:44.441Z,101568.94
2023-01-21T20:32:13.950Z,101562.44
2023-01-21T20:34:42.019Z,101560.00
2023-01-21T20:37:10.950Z,101556.47
2023-01-21T20:39:38.730Z,101552.31
2023-01-21T20:42:06.909Z,101557.22
2023-01-21T20:44:35.166Z,101558.00
2023-01-21T20:47:03.316Z,101552.94
2023-01-21T20:49:32.737Z,101553.84
2023-01-21T20:52:00.787Z,101551.31
2023-01-21T20:54:29.614Z,101542.72
2023-01-21T20:56:57.570Z,101545.41
2023-01-21T20:59:25.833Z,101549.66
2023-01-21T21:01:56.020Z,101539.44
2023-01-21T21:04:28.374Z,101532.63
2023-01-21T21:06:57.754Z,101525.00
2023-01-21T21:09:26.751Z,101528.78
2023-01-21T21:11:54.704Z,101525.28
2023-01-21T21:14:23.123Z,101530.38
2023-01-21T21:16:51.746Z,101533.66
2023-01-21T21:19:23.297Z,101531.00
2023-01-21T21:21:51.744Z,101528.44
2023-01-21T21:24:23.483Z,101528.59
2023-01-21T21:26:51.431Z,101521.91
2023-01-21T21:29:19.771Z,101521.88
2023-01-21T21:31:47.959Z,101517.69
2023-01-21T21:34:16.003Z,101521.00
2023-01-21T21:36:43.825Z,101519.25
2023-01-21T21:39:30.055Z,101518.56
2023-01-21T21:42:51.288Z,101521.06
2023-01-21T21:45:20.440Z,101518.41
2023-01-21T21:48:06.219Z,101512.03
2023-01-21T21:50:34.591Z,101511.06
2023-01-21T21:53:03.100Z,101510.09
2023-01-21T21:55:33.278Z,101503.84
2023-01-21T21:58:02.707Z,101504.63
2023-01-21T22:00:32.494Z,101502.88
2023-01-21T22:03:02.181Z,101504.72
2023-01-21T22:05:33.104Z,101499.25
2023-01-21T22:08:01.057Z,101498.00
2023-01-21T22:10:29.628Z,101508.22
2023-01-21T22:12:57.495Z,101505.63
2023-01-21T22:15:27.642Z,101503.13
2023-01-21T22:17:56.546Z,101502.13
2023-01-21T22:20:24.662Z,101503.25
2023-01-21T22:22:52.714Z,101499.72
2023-01-21T22:25:21.231Z,101501.34
2023-01-21T22:27:49.067Z,101502.25
2023-01-21T22:30:17.425Z,101503.13
2023-01-21T22:32:46.960Z,101498.81
2023-01-21T22:35:14.956Z,101495.22
2023-01-21T22:37:42.743Z,101487.75
2023-01-21T22:40:11.833Z,101495.56
2023-01-21T22:42:39.564Z,101496.38
2023-01-21T22:45:08.981Z,101495.50
2023-01-21T22:47:36.735Z,101494.78
2023-01-21T22:50:07.156Z,101485.53
2023-01-21T22:52:35.610Z,101480.94
2023-01-21T22:55:03.724Z,101475.69
2023-01-21T22:57:32.075Z,101476.53
2023-01-21T23:00:02.233Z,101470.66
2023-01-21T23:02:30.366Z,101458.88
2023-01-21T23:04:58.725Z,101456.09
2023-01-21T23:07:28.833Z,101452.81
2023-01-21T23:09:56.893Z,101456.00
2023-01-21T23:12:24.825Z,101449.88
2023-01-21T23:14:52.442Z,101452.66
2023-01-21T23:17:20.271Z,101448.53
2023-01-21T23:19:48.115Z,101450.16
2023-01-21T23:22:15.823Z,101447.47
2023-01-21T23:24:53.568Z,101441.63
2023-01-21T23:30:19.888Z,101444.09
2023-01-21T23:32:47.993Z,101431.44
2023-01-21T23:35:16.196Z,101433.91
2023-01-21T23:37:43.964Z,101441.00
2023-01-21T23:40:13.841Z,101440.81
2023-01-21T23:42:41.846Z,101430.50
2023-01-21T23:45:11.806Z,101427.06
2023-01-21T23:47:39.966Z,101423.78
2023-01-21T23:50:08.743Z,101426.19
2023-01-21T23:52:48.233Z,101417.06
2023-01-21T23:55:17.451Z,101422.03
2023-01-21T23:57:45.423Z,101416.97
